Dades meteomassalio
Diari Summary for Agost 31, 2017 Units:  Metric    English   Both
« Previous Day
Next Day »
Diari Semanal Mensual Anual Personalitzat
  Maxima: Minima: Mijana:
Temperatura: 25.6 °C 15.6 °C 19.7 °C
Rosada: 17.2 °C 8.8 °C 14.4 °C
Humitat: 93 % 49 % 73 %
Velocitat del vent: 27.8 km/h 0.0 km/h 9.4 km/h
Racha vent: 27.8 km/h - -
Vent:- - SW
Pressio: 1021.9 hPa 1016.1 hPa -
Pluja: 0.3 mm    
Historical Graphs
 
 
Tabular Data for Agost 31, 2017
Time Temperature Dew Point Pressure Wind Wind Speed Wind Gust Humidity Rainfall Rate (Hourly) solar Conditions
00:00 17.2 °C 15.7 °C 1016.1 hPa Calm     91 % 0.0 mm 0.0 W/m2 CLR
00:05 17.2 °C 15.7 °C 1016.1 hPa Calm     91 % 0.0 mm 0.0 W/m2 CLR
00:10 17.8 °C 16.3 °C 1016.1 hPa Calm     91 % 0.0 mm 0.0 W/m2 CLR
00:15 17.8 °C 16.3 °C 1016.1 hPa Calm     91 % 0.0 mm 0.0 W/m2 CLR
00:20 17.8 °C 16.3 °C 1016.1 hPa Calm     91 % 0.0 mm 0.0 W/m2 CLR
00:25 17.8 °C 16.3 °C 1016.1 hPa Calm     91 % 0.0 mm 0.0 W/m2 CLR
00:30 17.8 °C 16.3 °C 1016.1 hPa Calm     91 % 0.0 mm 0.0 W/m2 CLR
00:35 17.8 °C 16.3 °C 1016.1 hPa Calm     91 % 0.0 mm 0.0 W/m2 CLR
00:40 17.8 °C 16.3 °C 1016.1 hPa Calm     91 % 0.0 mm 0.0 W/m2 CLR
00:45 17.8 °C 16.3 °C 1016.1 hPa Calm     91 % 0.0 mm 0.0 W/m2 CLR
00:50 17.8 °C 16.4 °C 1016.1 hPa Calm     92 % 0.0 mm 0.0 W/m2 CLR
00:55 17.8 °C 16.4 °C 1016.1 hPa Calm     92 % 0.0 mm 0.0 W/m2 CLR
01:00 17.8 °C 16.3 °C 1016.5 hPa Calm     91 % 0.0 mm 0.0 W/m2 CLR
01:05 17.8 °C 16.4 °C 1016.5 hPa Calm     92 % 0.0 mm 0.0 W/m2 CLR
01:10 17.8 °C 16.4 °C 1016.8 hPa Calm     92 % 0.0 mm 0.0 W/m2 CLR
01:15 17.8 °C 16.4 °C 1016.8 hPa Calm     92 % 0.0 mm 0.0 W/m2 CLR
01:20 17.8 °C 16.4 °C 1016.5 hPa Calm     92 % 0.0 mm 0.0 W/m2 CLR
01:25 17.8 °C 16.4 °C 1016.5 hPa Calm     92 % 0.0 mm 0.0 W/m2 CLR
01:30 17.8 °C 16.4 °C 1016.8 hPa Calm     92 % 0.0 mm 0.0 W/m2 CLR
01:35 18.3 °C 17.0 °C 1016.5 hPa Calm     92 % 0.0 mm 0.0 W/m2 CLR
01:40 17.8 °C 16.4 °C 1016.8 hPa Calm     92 % 0.0 mm 0.0 W/m2 CLR
01:45 17.8 °C 16.4 °C 1016.8 hPa Calm     92 % 0.0 mm 0.0 W/m2 CLR
01:50 17.8 °C 16.4 °C 1016.8 hPa Calm     92 % 0.0 mm 0.0 W/m2 CLR
01:55 17.8 °C 16.4 °C 1016.8 hPa Calm     92 % 0.0 mm 0.0 W/m2 CLR
02:00 17.8 °C 16.4 °C 1016.8 hPa Calm     92 % 0.0 mm 0.0 W/m2 CLR
02:05 17.8 °C 16.4 °C 1016.8 hPa Calm     92 % 0.0 mm 0.0 W/m2 CLR
02:10 17.8 °C 16.4 °C 1017.2 hPa Calm     92 % 0.0 mm 0.0 W/m2 CLR
02:15 17.8 °C 16.4 °C 1016.8 hPa Calm     92 % 0.0 mm 0.0 W/m2 CLR
02:20 17.8 °C 16.4 °C 1016.8 hPa Calm     92 % 0.0 mm 0.0 W/m2 CLR
02:25 18.3 °C 17.0 °C 1016.8 hPa Calm     92 % 0.0 mm 0.0 W/m2 CLR
02:30 18.3 °C 17.0 °C 1017.2 hPa Calm     92 % 0.0 mm 0.0 W/m2 CLR
02:35 17.8 °C 16.4 °C 1017.2 hPa Calm     92 % 0.0 mm 0.0 W/m2 CLR
02:40 17.8 °C 16.4 °C 1017.2 hPa Calm     92 % 0.0 mm 0.0 W/m2 CLR
02:45 17.8 °C 16.6 °C 1017.5 hPa Calm     93 % 0.0 mm 0.0 W/m2 CLR
02:50 17.8 °C 16.6 °C 1017.5 hPa Calm     93 % 0.0 mm 0.0 W/m2 CLR
02:55 17.8 °C 16.6 °C 1017.5 hPa Calm     93 % 0.0 mm 0.0 W/m2 CLR
03:00 18.3 °C 17.2 °C 1017.5 hPa SW 5.6 km/h 5.6 km/h 93 % 0.0 mm 0.0 W/m2 CLR
03:05 18.3 °C 17.0 °C 1017.5 hPa SW 5.6 km/h 5.6 km/h 92 % 0.0 mm 0.0 W/m2 CLR
03:10 18.3 °C 17.0 °C 1017.8 hPa SW 9.3 km/h 9.3 km/h 92 % 0.0 mm 0.0 W/m2 CLR
03:15 18.3 °C 16.8 °C 1017.8 hPa SW 22.2 km/h 22.2 km/h 91 % 0.0 mm 0.0 W/m2 CLR
03:20 18.3 °C 16.7 °C 1017.8 hPa SSW 20.4 km/h 20.4 km/h 90 % 0.0 mm 0.0 W/m2 CLR
03:25 18.3 °C 16.5 °C 1017.8 hPa WSW 20.4 km/h 20.4 km/h 89 % 0.0 mm 0.0 W/m2 CLR
03:30 18.3 °C 16.5 °C 1017.8 hPa SSW 16.1 km/h 16.1 km/h 89 % 0.0 mm 0.0 W/m2 CLR
03:35 18.3 °C 16.5 °C 1017.8 hPa SW 11.1 km/h 11.1 km/h 89 % 0.0 mm 0.0 W/m2 CLR
03:41 18.3 °C 16.5 °C 1017.8 hPa SW 16.7 km/h 16.7 km/h 89 % 0.0 mm 0.0 W/m2 CLR
03:46 18.3 °C 16.3 °C 1017.8 hPa SW 14.8 km/h 14.8 km/h 88 % 0.0 mm 0.0 W/m2 CLR
03:51 18.3 °C 16.3 °C 1017.8 hPa SSW 16.7 km/h 16.7 km/h 88 % 0.0 mm 0.0 W/m2 CLR
03:56 17.8 °C 15.8 °C 1017.8 hPa SSW 18.5 km/h 18.5 km/h 88 % 0.0 mm 0.0 W/m2 CLR
04:01 17.8 °C 15.8 °C 1017.8 hPa SW 18.5 km/h 18.5 km/h 88 % 0.0 mm 0.0 W/m2 CLR
04:06 17.8 °C 15.8 °C 1017.5 hPa SW 14.8 km/h 14.8 km/h 88 % 0.0 mm 0.0 W/m2 CLR
04:11 17.8 °C 15.8 °C 1017.8 hPa SW 16.7 km/h 16.7 km/h 88 % 0.0 mm 0.0 W/m2 CLR
04:16 17.8 °C 15.8 °C 1017.8 hPa SW 16.7 km/h 16.7 km/h 88 % 0.0 mm 0.0 W/m2 CLR
04:21 17.2 °C 15.2 °C 1017.8 hPa SSW 13.0 km/h 13.0 km/h 88 % 0.0 mm 0.0 W/m2 CLR
04:26 17.2 °C 15.2 °C 1018.2 hPa SSW 16.7 km/h 16.7 km/h 88 % 0.0 mm 0.0 W/m2 CLR
04:31 17.2 °C 15.2 °C 1018.2 hPa SSW 16.7 km/h 16.7 km/h 88 % 0.0 mm 0.0 W/m2 CLR
04:36 17.2 °C 15.2 °C 1018.2 hPa SSW 13.0 km/h 13.0 km/h 88 % 0.0 mm 0.0 W/m2 CLR
04:38 17.2 °C 15.2 °C 1018.2 hPa South 14.8 km/h 14.8 km/h 88 % 0.0 mm 0.0 W/m2 CLR
04:43 17.2 °C 15.2 °C 1018.2 hPa SSW 9.7 km/h 9.7 km/h 88 % 0.0 mm 0.0 W/m2 CLR
04:48 17.2 °C 15.2 °C 1018.2 hPa SW 14.8 km/h 14.8 km/h 88 % 0.0 mm 0.0 W/m2 CLR
04:53 17.2 °C 15.1 °C 1018.2 hPa SSW 16.7 km/h 16.7 km/h 87 % 0.0 mm 0.0 W/m2 CLR
04:58 17.2 °C 15.1 °C 1018.2 hPa SSW 16.7 km/h 16.7 km/h 87 % 0.0 mm 0.0 W/m2 CLR
05:03 17.8 °C 15.6 °C 1018.5 hPa SW 13.0 km/h 13.0 km/h 87 % 0.0 mm 0.0 W/m2 CLR
05:08 17.2 °C 15.1 °C 1018.5 hPa SSW 16.7 km/h 16.7 km/h 87 % 0.0 mm 0.0 W/m2 CLR
05:13 17.8 °C 15.6 °C 1018.5 hPa SW 9.3 km/h 9.3 km/h 87 % 0.0 mm 0.0 W/m2 CLR
05:18 17.2 °C 15.1 °C 1018.5 hPa SSW 14.8 km/h 14.8 km/h 87 % 0.0 mm 0.0 W/m2 CLR
05:22 17.2 °C 15.1 °C 1018.5 hPa SSW 11.3 km/h 11.3 km/h 87 % 0.0 mm 0.0 W/m2 CLR
05:23 17.2 °C 15.1 °C 1018.5 hPa SW 11.1 km/h 11.1 km/h 87 % 0.0 mm 0.0 W/m2 CLR
05:28 17.2 °C 15.1 °C 1018.5 hPa SW 16.1 km/h 16.1 km/h 87 % 0.0 mm 0.0 W/m2 CLR
05:33 17.2 °C 14.8 °C 1018.5 hPa SSW 20.4 km/h 20.4 km/h 86 % 0.0 mm 0.0 W/m2 CLR
05:38 17.2 °C 14.8 °C 1018.5 hPa SSW 11.1 km/h 11.1 km/h 86 % 0.0 mm 0.0 W/m2 CLR
05:43 17.2 °C 14.8 °C 1018.8 hPa SW 11.1 km/h 11.1 km/h 86 % 0.0 mm 0.0 W/m2 CLR
05:48 17.2 °C 14.8 °C 1018.5 hPa SW 9.3 km/h 9.3 km/h 86 % 0.0 mm 0.0 W/m2 CLR
05:53 17.2 °C 14.8 °C 1018.5 hPa SSW 14.8 km/h 14.8 km/h 86 % 0.0 mm 0.0 W/m2 CLR
05:58 17.2 °C 14.8 °C 1018.5 hPa SSW 16.7 km/h 16.7 km/h 86 % 0.0 mm 0.0 W/m2 CLR
06:03 17.2 °C 14.8 °C 1018.8 hPa SW 11.3 km/h 11.3 km/h 86 % 0.0 mm 0.0 W/m2 CLR
06:08 17.2 °C 14.8 °C 1018.8 hPa SSW 7.4 km/h 7.4 km/h 86 % 0.0 mm 0.0 W/m2 CLR
06:13 17.2 °C 14.8 °C 1018.8 hPa SSW 13.0 km/h 13.0 km/h 86 % 0.0 mm 0.0 W/m2 CLR
06:18 17.2 °C 14.8 °C 1018.8 hPa SSW 11.1 km/h 11.1 km/h 86 % 0.0 mm 0.0 W/m2 CLR
06:23 17.2 °C 14.8 °C 1018.8 hPa SW 14.8 km/h 14.8 km/h 86 % 0.0 mm 0.0 W/m2 CLR
06:28 17.2 °C 14.8 °C 1018.8 hPa SW 14.8 km/h 14.8 km/h 86 % 0.0 mm 0.0 W/m2 CLR
06:33 17.2 °C 14.7 °C 1019.2 hPa SSW 18.5 km/h 18.5 km/h 85 % 0.0 mm 0.0 W/m2 CLR
06:38 17.2 °C 14.7 °C 1019.2 hPa SSW 12.9 km/h 12.9 km/h 85 % 0.0 mm 0.0 W/m2 CLR
06:43 17.2 °C 14.7 °C 1019.2 hPa SSW 16.7 km/h 16.7 km/h 85 % 0.0 mm 0.0 W/m2 CLR
06:48 17.2 °C 14.7 °C 1019.2 hPa SW 19.3 km/h 19.3 km/h 85 % 0.0 mm 0.0 W/m2 CLR
06:53 17.2 °C 14.7 °C 1019.2 hPa SSW 11.3 km/h 11.3 km/h 85 % 0.0 mm 0.0 W/m2 CLR
06:58 17.2 °C 14.7 °C 1019.2 hPa SW 13.0 km/h 13.0 km/h 85 % 0.0 mm 0.0 W/m2 CLR
07:03 17.2 °C 14.7 °C 1019.5 hPa SSW 16.7 km/h 16.7 km/h 85 % 0.0 mm 0.0 W/m2 CLR
07:09 17.2 °C 14.7 °C 1019.5 hPa SSW 22.2 km/h 22.2 km/h 85 % 0.0 mm 0.0 W/m2 CLR
07:14 17.2 °C 14.5 °C 1019.5 hPa SSW 22.2 km/h 22.2 km/h 84 % 0.0 mm 0.0 W/m2 CLR
07:19 17.2 °C 14.5 °C 1019.5 hPa SSW 25.7 km/h 25.7 km/h 84 % 0.0 mm 0.0 W/m2 OVC
07:24 17.2 °C 14.5 °C 1019.5 hPa SSW 20.4 km/h 20.4 km/h 84 % 0.0 mm 0.0 W/m2 OVC
07:29 17.2 °C 14.5 °C 1019.5 hPa SSW 18.5 km/h 18.5 km/h 84 % 0.0 mm 0.0 W/m2 OVC
07:34 17.2 °C 14.5 °C 1019.9 hPa SSW 18.5 km/h 18.5 km/h 84 % 0.0 mm 0.0 W/m2 OVC
07:39 16.7 °C 13.9 °C 1019.9 hPa SW 11.1 km/h 11.1 km/h 84 % 0.0 mm 0.0 W/m2 OVC
07:44 16.7 °C 13.9 °C 1019.9 hPa SW 11.1 km/h 11.1 km/h 84 % 0.0 mm 5.0 W/m2 OVC
07:49 16.7 °C 13.9 °C 1019.9 hPa SSW 16.7 km/h 16.7 km/h 84 % 0.0 mm 7.0 W/m2 BKN
07:54 16.7 °C 13.9 °C 1019.9 hPa Calm     84 % 0.0 mm 11.0 W/m2 BKN
07:59 16.7 °C 13.9 °C 1019.9 hPa Calm     84 % 0.0 mm 12.0 W/m2 BKN
08:04 16.7 °C 13.9 °C 1019.9 hPa Calm     84 % 0.0 mm 12.0 W/m2 BKN
08:09 16.7 °C 13.9 °C 1019.9 hPa Calm     84 % 0.0 mm 16.0 W/m2 BKN
08:14 16.7 °C 14.1 °C 1019.9 hPa Calm     85 % 0.0 mm 18.0 W/m2 BKN
08:19 16.7 °C 14.1 °C 1020.2 hPa Calm     85 % 0.0 mm 21.0 W/m2 BKN
08:24 16.7 °C 14.3 °C 1020.2 hPa Calm     86 % 0.0 mm 26.0 W/m2 BKN
08:29 16.7 °C 14.1 °C 1020.2 hPa South 11.3 km/h 11.3 km/h 85 % 0.0 mm 33.0 W/m2 BKN
08:34 16.7 °C 14.1 °C 1020.2 hPa SSW 7.4 km/h 7.4 km/h 85 % 0.0 mm 39.0 W/m2 BKN
08:39 16.7 °C 14.1 °C 1020.2 hPa SW 11.3 km/h 11.3 km/h 85 % 0.0 mm 49.0 W/m2 BKN
08:44 16.7 °C 13.9 °C 1020.2 hPa WSW 18.5 km/h 18.5 km/h 84 % 0.0 mm 63.0 W/m2 SCT
08:49 16.7 °C 13.8 °C 1020.5 hPa SSW 13.0 km/h 13.0 km/h 83 % 0.0 mm 72.0 W/m2 SCT
08:54 16.7 °C 13.9 °C 1020.5 hPa SSW 11.3 km/h 11.3 km/h 84 % 0.0 mm 79.0 W/m2 FEW
08:59 16.7 °C 13.8 °C 1020.5 hPa SSW 18.5 km/h 18.5 km/h 83 % 0.0 mm 83.0 W/m2 FEW
09:04 16.7 °C 13.8 °C 1020.5 hPa SW 25.7 km/h 25.7 km/h 83 % 0.0 mm 93.0 W/m2 FEW
09:09 16.7 °C 13.8 °C 1020.9 hPa WSW 16.1 km/h 16.1 km/h 83 % 0.0 mm 97.0 W/m2 CLR
09:14 16.7 °C 13.8 °C 1020.9 hPa SW 11.1 km/h 11.1 km/h 83 % 0.0 mm 97.0 W/m2 CLR
09:19 16.7 °C 13.8 °C 1020.9 hPa SSW 16.1 km/h 16.1 km/h 83 % 0.0 mm 97.0 W/m2 CLR
09:24 16.7 °C 13.8 °C 1020.9 hPa SSW 11.3 km/h 11.3 km/h 83 % 0.0 mm 102.0 W/m2 CLR
09:29 16.7 °C 13.8 °C 1020.9 hPa WSW 18.5 km/h 18.5 km/h 83 % 0.0 mm 111.0 W/m2 CLR
09:34 16.7 °C 13.8 °C 1020.9 hPa SW 9.3 km/h 9.3 km/h 83 % 0.0 mm 118.0 W/m2 CLR
09:39 16.7 °C 13.8 °C 1020.9 hPa SSW 14.8 km/h 14.8 km/h 83 % 0.0 mm 139.0 W/m2 CLR
09:44 17.2 °C 14.3 °C 1020.9 hPa SW 11.1 km/h 11.1 km/h 83 % 0.0 mm 174.0 W/m2 CLR
09:49 17.2 °C 14.3 °C 1020.9 hPa SSW 5.6 km/h 5.6 km/h 83 % 0.0 mm 183.0 W/m2 CLR
09:54 17.2 °C 14.1 °C 1021.2 hPa SSW 11.3 km/h 11.3 km/h 82 % 0.0 mm 202.0 W/m2 CLR
09:59 17.2 °C 13.9 °C 1021.2 hPa SSW 18.5 km/h 18.5 km/h 81 % 0.0 mm 251.0 W/m2 CLR
10:04 17.8 °C 14.8 °C 1021.2 hPa South 18.5 km/h 18.5 km/h 83 % 0.0 mm 584.0 W/m2 CLR
10:10 18.3 °C 14.8 °C 1021.2 hPa SSW 27.8 km/h 27.8 km/h 80 % 0.0 mm 301.0 W/m2 CLR
10:15 18.3 °C 14.8 °C 1021.2 hPa SSW 18.5 km/h 18.5 km/h 80 % 0.0 mm 369.0 W/m2 CLR
10:20 18.3 °C 14.8 °C 1021.6 hPa WSW 20.4 km/h 20.4 km/h 80 % 0.0 mm 332.0 W/m2 CLR
10:25 18.9 °C 15.2 °C 1021.6 hPa SW 25.9 km/h 25.9 km/h 79 % 0.0 mm 371.0 W/m2 CLR
10:30 18.9 °C 15.4 °C 1021.6 hPa SW 22.5 km/h 22.5 km/h 80 % 0.0 mm 334.0 W/m2 CLR
10:35 18.3 °C 14.6 °C 1021.6 hPa SSW 27.8 km/h 27.8 km/h 79 % 0.3 mm 360.0 W/m2 RA
10:40 18.3 °C 14.4 °C 1021.6 hPa SW 20.4 km/h 20.4 km/h 78 % 0.3 mm 352.0 W/m2 CLR
10:45 18.3 °C 14.4 °C 1021.6 hPa SSW 24.1 km/h 24.1 km/h 78 % 0.3 mm 323.0 W/m2 CLR
10:50 18.9 °C 14.8 °C 1021.6 hPa SSW 24.1 km/h 24.1 km/h 77 % 0.3 mm 531.0 W/m2 CLR
10:55 18.9 °C 14.8 °C 1021.6 hPa SSW 22.2 km/h 22.2 km/h 77 % 0.3 mm 547.0 W/m2 CLR
11:00 19.4 °C 15.3 °C 1021.6 hPa SSE 24.1 km/h 24.1 km/h 77 % 0.3 mm 647.0 W/m2 CLR
11:05 19.4 °C 15.7 °C 1021.6 hPa SW 11.3 km/h 11.3 km/h 79 % 0.3 mm 735.0 W/m2 CLR
11:10 19.4 °C 15.3 °C 1021.6 hPa SW 24.1 km/h 24.1 km/h 77 % 0.3 mm 752.0 W/m2 CLR
11:15 19.4 °C 15.3 °C 1021.6 hPa WSW 22.2 km/h 22.2 km/h 77 % 0.3 mm 810.0 W/m2 CLR
11:16 20.0 °C 15.8 °C 1021.6 hPa SW 20.4 km/h 20.4 km/h 77 % 0.3 mm 810.0 W/m2 CLR
11:21 20.0 °C 15.7 °C 1021.6 hPa SW 25.7 km/h 25.7 km/h 76 % 0.3 mm 483.0 W/m2 CLR
11:26 19.4 °C 15.1 °C 1021.6 hPa SW 20.4 km/h 20.4 km/h 76 % 0.3 mm 679.0 W/m2 CLR
11:31 20.0 °C 15.7 °C 1021.6 hPa SW 20.4 km/h 20.4 km/h 76 % 0.0 mm 722.0 W/m2 CLR
11:36 20.0 °C 15.4 °C 1021.6 hPa SW 24.1 km/h 24.1 km/h 75 % 0.0 mm 694.0 W/m2 CLR
11:41 20.6 °C 15.9 °C 1021.6 hPa SSW 24.1 km/h 24.1 km/h 75 % 0.0 mm 694.0 W/m2 CLR
11:46 20.0 °C 15.2 °C 1021.6 hPa SSW 19.3 km/h 19.3 km/h 74 % 0.0 mm 708.0 W/m2 CLR
11:51 20.6 °C 15.8 °C 1021.6 hPa SW 18.5 km/h 18.5 km/h 74 % 0.0 mm 744.0 W/m2 CLR
11:56 21.1 °C 15.9 °C 1021.6 hPa South 22.2 km/h 22.2 km/h 72 % 0.0 mm 703.0 W/m2 CLR
12:01 20.6 °C 15.6 °C 1021.6 hPa WSW 14.5 km/h 14.5 km/h 73 % 0.0 mm 701.0 W/m2 CLR
12:06 21.1 °C 15.9 °C 1021.6 hPa SE 13.0 km/h 13.0 km/h 72 % 0.0 mm 719.0 W/m2 CLR
12:11 21.1 °C 15.7 °C 1021.6 hPa SSW 5.6 km/h   71 % 0.0 mm 749.0 W/m2 CLR
12:16 21.7 °C 15.9 °C 1021.2 hPa SSW 19.3 km/h 19.3 km/h 70 % 0.0 mm 737.0 W/m2 CLR
12:21 21.7 °C 16.2 °C 1021.2 hPa SW 9.3 km/h 9.3 km/h 71 % 0.0 mm 744.0 W/m2 CLR
12:26 21.7 °C 16.2 °C 1021.2 hPa WSW 20.4 km/h 20.4 km/h 71 % 0.0 mm 751.0 W/m2 CLR
12:31 21.7 °C 16.2 °C 1021.2 hPa SW 18.5 km/h 18.5 km/h 71 % 0.0 mm 758.0 W/m2 CLR
12:36 21.7 °C 15.5 °C 1021.2 hPa South 14.8 km/h 14.8 km/h 68 % 0.0 mm 763.0 W/m2 CLR
12:41 22.2 °C 16.5 °C 1021.2 hPa SSW 25.9 km/h 25.9 km/h 70 % 0.0 mm 768.0 W/m2 CLR
12:46 22.2 °C 16.3 °C 1021.2 hPa SSW 8.0 km/h 8.0 km/h 69 % 0.0 mm 770.0 W/m2 CLR
12:51 22.2 °C 16.1 °C 1021.2 hPa SSW 18.5 km/h 18.5 km/h 68 % 0.0 mm 782.0 W/m2 CLR
12:56 22.2 °C 16.1 °C 1021.2 hPa SW 20.4 km/h 20.4 km/h 68 % 0.0 mm 789.0 W/m2 CLR
13:01 22.8 °C 16.8 °C 1021.2 hPa SW 20.4 km/h 20.4 km/h 69 % 0.0 mm 802.0 W/m2 CLR
13:06 22.8 °C 16.6 °C 1020.9 hPa Calm     68 % 0.0 mm 796.0 W/m2 CLR
13:11 22.8 °C 16.1 °C 1020.9 hPa SW 18.5 km/h 18.5 km/h 66 % 0.0 mm 867.0 W/m2 CLR
13:16 22.2 °C 15.3 °C 1020.9 hPa SW 18.5 km/h 18.5 km/h 65 % 0.0 mm 816.0 W/m2 CLR
13:21 22.2 °C 15.8 °C 1020.9 hPa SW 19.3 km/h 19.3 km/h 67 % 0.0 mm 817.0 W/m2 CLR
13:26 22.8 °C 16.1 °C 1020.9 hPa WSW 22.2 km/h 22.2 km/h 66 % 0.0 mm 853.0 W/m2 CLR
13:31 22.2 °C 15.3 °C 1020.9 hPa South 20.4 km/h 20.4 km/h 65 % 0.0 mm 847.0 W/m2 CLR
13:37 22.8 °C 16.1 °C 1020.5 hPa SW 20.4 km/h 20.4 km/h 66 % 0.0 mm 879.0 W/m2 CLR
13:42 22.2 °C 15.6 °C 1020.9 hPa South 24.1 km/h 24.1 km/h 66 % 0.0 mm 951.0 W/m2 CLR
13:47 23.3 °C 16.4 °C 1020.9 hPa WNW 20.4 km/h 20.4 km/h 65 % 0.0 mm 882.0 W/m2 CLR
13:52 23.3 °C 15.7 °C 1020.9 hPa West 11.1 km/h 11.1 km/h 62 % 0.0 mm 990.0 W/m2 CLR
13:57 22.8 °C 15.4 °C 1020.9 hPa SSW 11.1 km/h 11.1 km/h 63 % 0.0 mm 290.0 W/m2 CLR
14:02 22.2 °C 14.8 °C 1020.9 hPa WSW 11.1 km/h 11.1 km/h 63 % 0.0 mm 900.0 W/m2 CLR
14:07 22.8 °C 15.6 °C 1020.9 hPa SW 13.0 km/h 13.0 km/h 64 % 0.0 mm 863.0 W/m2 CLR
14:12 23.3 °C 15.9 °C 1020.9 hPa West 5.6 km/h 5.6 km/h 63 % 0.0 mm 893.0 W/m2 CLR
14:17 23.3 °C 15.4 °C 1020.9 hPa South 7.4 km/h 7.4 km/h 61 % 0.0 mm 872.0 W/m2 CLR
14:22 23.3 °C 15.7 °C 1020.5 hPa SW 5.6 km/h 5.6 km/h 62 % 0.0 mm 830.0 W/m2 CLR
14:27 23.9 °C 16.4 °C 1020.5 hPa WSW 13.0 km/h 13.0 km/h 63 % 0.0 mm 840.0 W/m2 CLR
14:32 23.3 °C 15.4 °C 1020.5 hPa West 24.1 km/h 24.1 km/h 61 % 0.0 mm 840.0 W/m2 CLR
14:37 23.3 °C 14.3 °C 1020.5 hPa SW 9.3 km/h 9.3 km/h 57 % 0.0 mm 819.0 W/m2 CLR
14:42 23.9 °C 15.4 °C 1020.5 hPa SW 9.3 km/h 9.3 km/h 59 % 0.0 mm 812.0 W/m2 CLR
14:47 23.3 °C 15.1 °C 1020.5 hPa Calm     60 % 0.0 mm 810.0 W/m2 CLR
14:52 23.9 °C 15.4 °C 1020.5 hPa SW 7.4 km/h 7.4 km/h 59 % 0.0 mm 803.0 W/m2 CLR
14:57 23.9 °C 14.8 °C 1020.5 hPa West 11.1 km/h 11.1 km/h 57 % 0.0 mm 800.0 W/m2 CLR
15:02 23.9 °C 14.8 °C 1020.5 hPa SW 9.3 km/h 9.3 km/h 57 % 0.0 mm 793.0 W/m2 CLR
15:07 23.9 °C 14.8 °C 1020.5 hPa SSW 1.9 km/h   57 % 0.0 mm 788.0 W/m2 CLR
15:12 24.4 °C 15.1 °C 1020.5 hPa Calm     56 % 0.0 mm 784.0 W/m2 CLR
15:17 23.9 °C 14.3 °C 1020.2 hPa West 18.5 km/h 18.5 km/h 55 % 0.0 mm 780.0 W/m2 CLR
15:22 23.9 °C 14.3 °C 1020.2 hPa SW 11.3 km/h 11.3 km/h 55 % 0.0 mm 773.0 W/m2 CLR
15:27 24.4 °C 14.6 °C 1019.9 hPa WNW 16.7 km/h 16.7 km/h 54 % 0.0 mm 770.0 W/m2 CLR
15:32 24.4 °C 14.8 °C 1019.9 hPa West 5.6 km/h 5.6 km/h 55 % 0.0 mm 761.0 W/m2 CLR
15:37 24.4 °C 14.2 °C 1019.9 hPa Calm     53 % 0.0 mm 756.0 W/m2 CLR
15:42 23.9 °C 14.6 °C 1019.9 hPa SSW 7.4 km/h 7.4 km/h 56 % 0.0 mm 744.0 W/m2 CLR
15:47 24.4 °C 14.6 °C 1019.9 hPa SSW 13.0 km/h 13.0 km/h 54 % 0.0 mm 737.0 W/m2 CLR
15:52 24.4 °C 13.9 °C 1019.9 hPa WNW 7.4 km/h   52 % 0.0 mm 731.0 W/m2 CLR
15:57 24.4 °C 14.6 °C 1019.5 hPa WSW 18.5 km/h 18.5 km/h 54 % 0.0 mm 728.0 W/m2 CLR
16:02 24.4 °C 14.6 °C 1019.5 hPa SSW 11.1 km/h 11.1 km/h 54 % 0.0 mm 737.0 W/m2 CLR
16:07 25.0 °C 14.4 °C 1019.5 hPa Calm     52 % 0.0 mm 777.0 W/m2 CLR
16:12 25.0 °C 14.4 °C 1019.5 hPa Calm     52 % 0.0 mm 749.0 W/m2 CLR
16:17 25.0 °C 14.8 °C 1019.2 hPa West 5.6 km/h 5.6 km/h 53 % 0.0 mm 700.0 W/m2 CLR
16:22 25.0 °C 14.4 °C 1019.5 hPa West 13.0 km/h 13.0 km/h 52 % 0.0 mm 670.0 W/m2 CLR
16:23 25.0 °C 14.4 °C 1019.2 hPa West 13.0 km/h 13.0 km/h 52 % 0.0 mm 670.0 W/m2 CLR
16:28 25.0 °C 14.8 °C 1019.2 hPa SW 14.8 km/h 14.8 km/h 53 % 0.0 mm 563.0 W/m2 CLR
16:33 25.6 °C 15.6 °C 1019.2 hPa SW 18.5 km/h 18.5 km/h 54 % 0.0 mm 679.0 W/m2 CLR
16:38 25.0 °C 14.8 °C 1019.2 hPa West 16.7 km/h 16.7 km/h 53 % 0.0 mm 735.0 W/m2 CLR
16:43 25.0 °C 14.8 °C 1019.2 hPa WSW 14.8 km/h 14.8 km/h 53 % 0.0 mm 269.0 W/m2 CLR
16:48 23.9 °C 13.7 °C 1019.2 hPa SSW 14.8 km/h 14.8 km/h 53 % 0.0 mm 302.0 W/m2 CLR
16:53 24.4 °C 13.7 °C 1019.2 hPa WSW 11.1 km/h 11.1 km/h 51 % 0.0 mm 735.0 W/m2 CLR
16:58 24.4 °C 13.7 °C 1019.2 hPa Calm     51 % 0.0 mm 629.0 W/m2 CLR
17:03 25.0 °C 13.8 °C 1019.2 hPa Calm     50 % 0.0 mm 645.0 W/m2 CLR
17:08 25.0 °C 13.8 °C 1019.2 hPa WSW 8.0 km/h 8.0 km/h 50 % 0.0 mm 533.0 W/m2 CLR
17:13 25.0 °C 13.8 °C 1019.2 hPa West 9.3 km/h 9.3 km/h 50 % 0.0 mm 601.0 W/m2 CLR
17:18 25.0 °C 13.8 °C 1019.2 hPa West 14.8 km/h 14.8 km/h 50 % 0.0 mm 552.0 W/m2 CLR
17:23 25.6 °C 14.7 °C 1019.2 hPa WSW 9.7 km/h 9.7 km/h 51 % 0.0 mm 540.0 W/m2 CLR
17:28 25.6 °C 14.7 °C 1019.2 hPa West 16.7 km/h 16.7 km/h 51 % 0.0 mm 527.0 W/m2 CLR
17:33 25.0 °C 13.8 °C 1019.2 hPa WSW 5.6 km/h 5.6 km/h 50 % 0.0 mm 508.0 W/m2 CLR
17:38 25.0 °C 13.6 °C 1019.2 hPa WNW 14.8 km/h 14.8 km/h 49 % 0.0 mm 490.0 W/m2 CLR
17:43 25.0 °C 14.2 °C 1019.2 hPa West 11.1 km/h 11.1 km/h 51 % 0.0 mm 478.0 W/m2 CLR
17:48 24.4 °C 13.7 °C 1019.2 hPa West 13.0 km/h 13.0 km/h 51 % 0.0 mm 468.0 W/m2 CLR
17:53 24.4 °C 13.3 °C 1018.8 hPa Calm     50 % 0.0 mm 455.0 W/m2 CLR
17:58 24.4 °C 13.7 °C 1018.8 hPa NNW 3.7 km/h 3.7 km/h 51 % 0.0 mm 425.0 W/m2 CLR
18:03 24.4 °C 13.7 °C 1018.8 hPa West 5.6 km/h 5.6 km/h 51 % 0.0 mm 339.0 W/m2 CLR
18:08 24.4 °C 13.9 °C 1018.8 hPa SW 13.0 km/h 13.0 km/h 52 % 0.0 mm 397.0 W/m2 CLR
18:13 24.4 °C 13.3 °C 1018.8 hPa West 14.8 km/h 14.8 km/h 50 % 0.0 mm 281.0 W/m2 CLR
18:18 24.4 °C 13.9 °C 1018.8 hPa West 16.7 km/h 16.7 km/h 52 % 0.0 mm 209.0 W/m2 CLR
18:23 24.4 °C 13.9 °C 1018.8 hPa WSW 13.0 km/h 13.0 km/h 52 % 0.0 mm 130.0 W/m2 CLR
18:28 23.9 °C 13.7 °C 1018.8 hPa Calm     53 % 0.0 mm 144.0 W/m2 CLR
18:33 23.9 °C 14.0 °C 1018.8 hPa Calm     54 % 0.0 mm 399.0 W/m2 CLR
18:38 23.9 °C 13.4 °C 1018.8 hPa West 14.8 km/h 14.8 km/h 52 % 0.0 mm 387.0 W/m2 CLR
18:43 24.4 °C 13.7 °C 1018.8 hPa SW 3.7 km/h   51 % 0.0 mm 302.0 W/m2 CLR
18:48 23.9 °C 13.1 °C 1019.2 hPa Calm     51 % 0.0 mm 114.0 W/m2 CLR
18:53 23.9 °C 13.7 °C 1019.2 hPa SW 9.3 km/h 9.3 km/h 53 % 0.0 mm 213.0 W/m2 CLR
18:58 23.9 °C 13.4 °C 1019.2 hPa Calm     52 % 0.0 mm 149.0 W/m2 CLR
19:03 23.9 °C 13.7 °C 1019.2 hPa Calm     53 % 0.0 mm 128.0 W/m2 CLR
19:08 23.3 °C 12.9 °C 1019.2 hPa WSW 6.4 km/h 6.4 km/h 52 % 0.0 mm 130.0 W/m2 CLR
19:13 23.3 °C 13.2 °C 1019.2 hPa SW 9.3 km/h 9.3 km/h 53 % 0.0 mm 213.0 W/m2 CLR
19:18 23.9 °C 13.7 °C 1019.2 hPa SSW 13.0 km/h 13.0 km/h 53 % 0.0 mm 214.0 W/m2 CLR
19:23 23.9 °C 13.4 °C 1019.2 hPa SSW 9.3 km/h 9.3 km/h 52 % 0.0 mm 116.0 W/m2 CLR
19:28 23.9 °C 13.4 °C 1019.2 hPa SW 9.3 km/h 9.3 km/h 52 % 0.0 mm 114.0 W/m2 CLR
19:33 23.9 °C 13.4 °C 1019.5 hPa WSW 14.8 km/h 14.8 km/h 52 % 0.0 mm 120.0 W/m2 CLR
19:38 23.3 °C 13.2 °C 1019.5 hPa WSW 11.1 km/h 11.1 km/h 53 % 0.0 mm 109.0 W/m2 CLR
19:43 23.3 °C 13.2 °C 1019.5 hPa WSW 9.7 km/h 9.7 km/h 53 % 0.0 mm 102.0 W/m2 CLR
19:48 23.3 °C 13.2 °C 1019.5 hPa Calm     53 % 0.0 mm 70.0 W/m2 FEW
19:53 23.3 °C 13.5 °C 1019.9 hPa WSW 7.4 km/h 7.4 km/h 54 % 0.0 mm 72.0 W/m2 FEW
19:58 22.8 °C 12.7 °C 1019.9 hPa WSW 3.7 km/h   53 % 0.0 mm 56.0 W/m2 SCT
20:03 22.8 °C 13.3 °C 1019.9 hPa Calm     55 % 0.0 mm 42.0 W/m2 BKN
20:08 22.8 °C 13.3 °C 1019.9 hPa SW 3.2 km/h 3.2 km/h 55 % 0.0 mm 32.0 W/m2 BKN
20:13 22.2 °C 13.0 °C 1019.9 hPa Calm     56 % 0.0 mm 26.0 W/m2 BKN
20:18 22.2 °C 13.0 °C 1019.9 hPa Calm     56 % 0.0 mm 19.0 W/m2 BKN
20:23 22.2 °C 13.3 °C 1020.2 hPa Calm     57 % 0.0 mm 12.0 W/m2 BKN
20:28 21.7 °C 12.8 °C 1020.2 hPa Calm     57 % 0.0 mm 9.0 W/m2 BKN
20:33 21.7 °C 13.3 °C 1020.2 hPa Calm     59 % 0.0 mm 0.0 W/m2 OVC
20:38 21.1 °C 12.5 °C 1020.2 hPa Calm     58 % 0.0 mm 0.0 W/m2 OVC
20:43 20.6 °C 12.0 °C 1020.2 hPa Calm     58 % 0.0 mm 0.0 W/m2 CLR
20:48 20.0 °C 11.7 °C 1020.2 hPa Calm     59 % 0.0 mm 0.0 W/m2 CLR
20:53 19.4 °C 11.9 °C 1020.2 hPa Calm     62 % 0.0 mm 0.0 W/m2 CLR
20:58 19.4 °C 12.7 °C 1020.2 hPa Calm     65 % 0.0 mm 0.0 W/m2 CLR
21:03 18.9 °C 12.4 °C 1020.2 hPa Calm     66 % 0.0 mm 0.0 W/m2 CLR
21:08 18.9 °C 12.4 °C 1020.2 hPa Calm     66 % 0.0 mm 0.0 W/m2 CLR
21:13 18.9 °C 12.4 °C 1020.2 hPa Calm     66 % 0.0 mm 0.0 W/m2 CLR
21:18 18.9 °C 12.2 °C 1020.2 hPa Calm     65 % 0.0 mm 0.0 W/m2 CLR
21:23 18.9 °C 12.2 °C 1020.2 hPa Calm     65 % 0.0 mm 0.0 W/m2 CLR
21:28 18.9 °C 12.6 °C 1020.5 hPa Calm     67 % 0.0 mm 0.0 W/m2 CLR
21:33 18.9 °C 12.2 °C 1020.5 hPa Calm     65 % 0.0 mm 0.0 W/m2 CLR
21:38 18.3 °C 11.4 °C 1020.5 hPa Calm     64 % 0.0 mm 0.0 W/m2 CLR
21:43 18.3 °C 10.9 °C 1020.5 hPa Calm     62 % 0.0 mm 0.0 W/m2 CLR
21:48 17.8 °C 10.4 °C 1020.5 hPa Calm     62 % 0.0 mm 0.0 W/m2 CLR
21:53 17.8 °C 10.4 °C 1020.9 hPa Calm     62 % 0.0 mm 0.0 W/m2 CLR
21:58 17.2 °C 9.9 °C 1020.9 hPa Calm     62 % 0.0 mm 0.0 W/m2 CLR
22:03 17.2 °C 9.9 °C 1020.9 hPa Calm     62 % 0.0 mm 0.0 W/m2 CLR
22:08 17.2 °C 10.1 °C 1020.9 hPa Calm     63 % 0.0 mm 0.0 W/m2 CLR
22:13 17.2 °C 10.1 °C 1020.9 hPa Calm     63 % 0.0 mm 0.0 W/m2 CLR
22:18 16.7 °C 10.1 °C 1020.9 hPa Calm     65 % 0.0 mm 0.0 W/m2 CLR
22:23 16.7 °C 10.3 °C 1020.9 hPa Calm     66 % 0.0 mm 0.0 W/m2 CLR
22:28 16.7 °C 10.5 °C 1020.9 hPa Calm     67 % 0.0 mm 0.0 W/m2 CLR
22:33 16.1 °C 10.0 °C 1021.2 hPa Calm     67 % 0.0 mm 0.0 W/m2 CLR
22:38 16.1 °C 10.2 °C 1021.2 hPa Calm     68 % 0.0 mm 0.0 W/m2 CLR
22:43 16.1 °C 10.0 °C 1021.2 hPa Calm     67 % 0.0 mm 0.0 W/m2 CLR
22:49 16.1 °C 9.8 °C 1021.2 hPa Calm     66 % 0.0 mm 0.0 W/m2 CLR
22:54 16.1 °C 11.1 °C 1021.2 hPa Calm     72 % 0.0 mm 0.0 W/m2 CLR
22:59 15.6 °C 10.7 °C 1021.2 hPa Calm     73 % 0.0 mm 0.0 W/m2 CLR
23:04 15.6 °C 9.9 °C 1021.2 hPa Calm     69 % 0.0 mm 0.0 W/m2 CLR
23:09 15.6 °C 10.1 °C 1021.6 hPa Calm     70 % 0.0 mm 0.0 W/m2 CLR
23:14 15.6 °C 9.9 °C 1021.6 hPa Calm     69 % 0.0 mm 0.0 W/m2 CLR
23:19 15.6 °C 10.3 °C 1021.6 hPa Calm     71 % 0.0 mm 0.0 W/m2 CLR
23:24 15.6 °C 10.5 °C 1021.6 hPa Calm     72 % 0.0 mm 0.0 W/m2 CLR
23:29 15.6 °C 9.4 °C 1021.6 hPa Calm     67 % 0.0 mm 0.0 W/m2 CLR
23:34 15.6 °C 9.2 °C 1021.6 hPa Calm     66 % 0.0 mm 0.0 W/m2 CLR
23:39 15.6 °C 9.0 °C 1021.6 hPa Calm     65 % 0.0 mm 0.0 W/m2 CLR
23:44 15.6 °C 9.2 °C 1021.6 hPa Calm     66 % 0.0 mm 0.0 W/m2 CLR
23:45 15.6 °C 9.0 °C 1021.6 hPa Calm     65 % 0.0 mm 0.0 W/m2 CLR
23:49 15.6 °C 9.0 °C 1021.6 hPa Calm     65 % 0.0 mm 0.0 W/m2 CLR
23:54 15.6 °C 9.0 °C 1021.6 hPa SSW 4.8 km/h 4.8 km/h 65 % 0.0 mm 0.0 W/m2 CLR
23:59 15.6 °C 8.8 °C 1021.9 hPa Calm     64 % 0.0 mm 0.0 W/m2 CLR
Lo Temps de Massalio
Compliments of Weather Underground - 1.25 mb